Skip to Main Content

Eastern Shore Cameras may be unavailable at times today

due to Networking issues

 

SEARCH:
Location Air RH Dwp Precip Type Wind Speed Wind Gust Direction Pavement Temperature Date/Time
Hatem Bridge US 40 E/B 71 79 65 None - - No Data Available 73 - 73 8/23/2017 8:58:00 PM
I-270 at I-370 72 67 61 None Calm Calm N 84 - 86 8/23/2017 8:55:00 PM
I-270 at MD-109 69 94 67 None Calm Calm N 80 - 80 8/23/2017 8:55:00 PM
I-495 at American Legion Bridge 68 91 65 None Calm Calm NW 81 - 82 8/23/2017 8:55:00 PM
I-68 at MD-219 60 75 52 None Calm 9 mph NW 69 - 75 8/23/2017 8:55:00 PM
I-68 at Savage Mt 57 93 55 None Calm Calm W 69 - 73 8/23/2017 8:55:00 PM
I-68 at Sideling Hill 67 74 58 None Calm Calm NW 79 - 82 8/23/2017 8:55:00 PM
I-68 at WV Line 60 78 54 None Calm 6 mph NW 73 - 75 8/23/2017 8:55:00 PM
I-695 at I-83 70 72 61 None Calm 5 mph N 80 - 81 8/23/2017 8:55:00 PM
I-70 at Fred-Wash Co. - - - No Data Available - - No Data Available -
I-70 at I-695 73 64 60 None Calm 7 mph SW 81 - 84 8/23/2017 8:55:00 PM
I-70 at I-81 70 63 57 None Calm Calm E - 8/23/2017 8:55:00 PM
I-70 at MD-27 71 67 60 None Calm 5 mph N 81 - 81 8/23/2017 8:55:00 PM
I-70 at MD-32 67 85 63 None Calm Calm E 81 - 83 8/23/2017 8:55:00 PM
I-83 at MD-137 66 89 63 None Calm Calm NW 78 - 78 8/23/2017 8:55:00 PM
I-95 at I-695 NE 72 66 60 None Calm Calm N 79 - 81 8/23/2017 8:58:00 PM
I-95 at Patuxent River 71 86 67 None Calm 9 mph NE 80 - 81 8/23/2017 8:55:00 PM
I-95 at Tydings Bridge 69 76 61 None Calm 4 mph NE 79 - 79 8/23/2017 8:55:00 PM
I-95/495 at I-295 82 59 67 None Calm Calm N 84 - 85 8/23/2017 8:55:00 PM
I-97 at MD-100 73 64 60 None Calm Calm NW 81 - 82 8/23/2017 8:55:00 PM
I-97 at MD-32 68 83 63 None 9 mph 11 mph N 80 - 80 8/23/2017 8:55:00 PM
MD 20 at MD 21 68 85 64 None Calm Calm NE 83 - 83 8/23/2017 8:55:00 PM
MD 231 at Patuxent River 71 95 70 None Calm 4 mph NW 77 - 80 8/23/2017 8:55:00 PM
MD 260 at Cox Rd 69 98 69 None Calm Calm N 80 - 80 8/23/2017 8:55:00 PM
MD-135 at Salt Dome 60 85 55 None Calm 6 mph NW 74 - 74 8/23/2017 8:55:00 PM
MD-140 at MD-97 67 72 57 None Calm Calm E 80 - 80 8/23/2017 8:55:00 PM
MD-200 EB at Bonifant Rd 68 86 64 None Calm Calm W 74 - 77 8/23/2017 8:58:00 PM
MD-200 WB at Muncaster Mill Rd 66 88 62 None Calm Calm N 78 - 78 8/23/2017 8:58:00 PM
MD-213 at Sassafras River 72 89 69 None Calm Calm NE 82 - 82 8/23/2017 8:55:00 PM
MD-24 at Rock St Park 66 99 66 None Calm Calm NE 71 - 71 8/23/2017 8:55:00 PM
MD-30 at PA Line 68 72 59 None Calm Calm SW 82 - 82 8/23/2017 8:55:00 PM
MD-301 at MD-305 67 88 64 None Calm Calm N 81 - 84 8/23/2017 8:55:00 PM
MD-33 at Knapps Narrows Drawbridge 73 82 67 None Calm Calm NE 81 - 81 8/23/2017 8:55:00 PM
MD-344 at MD-224 70 94 69 None Calm Calm N - 8/23/2017 8:55:00 PM
MD-4 at Patuxent River 74 87 70 None - - No Data Available 78 - 78 8/23/2017 8:55:00 PM
MD-404 at Choptank River 71 93 69 None Calm Calm E 78 - 81 8/23/2017 8:55:00 PM
MD-43 at MD-150 69 84 64 None Calm 4 mph N 81 - 82 8/23/2017 8:55:00 PM
MD-51 at Oldtown Salt Dome 66 81 60 None Calm Calm N 84 - 84 8/23/2017 8:55:00 PM
MD-64 at MD-418 - - - No Data Available - - No Data Available -
US-1 at Baltimore / Harford Co. Line 65 94 63 None Calm Calm NW 75 - 76 8/23/2017 8:55:00 PM
US-1 at Conowingo Dam 69 86 65 None Calm 4 mph N 81 - 81 8/23/2017 8:55:00 PM
US-13 at US-113 74 77 66 Rain Calm 7 mph N 85 - 88 8/23/2017 8:55:00 PM
US-13 at US-50 - - - No Data Available - - No Data Available -
US-15 at MD-140 68 73 59 None Calm 4 mph N 82 - 83 8/23/2017 8:55:00 PM
US-301 at MD-5 71 93 70 None Calm Calm N 80 - 81 8/23/2017 8:55:00 PM
US-301 at Potomac 73 89 70 None Calm 4 mph NE 75 - 78 8/23/2017 8:55:00 PM
US-301 on HWN Bridge 75 80 68 None Calm Calm N 75 - 75 8/23/2017 8:58:00 PM
US-340 at MD-180 68 72 59 None Calm 5 mph N 83 - 86 8/23/2017 8:55:00 PM
US-50 at Choptank 74 91 71 None Calm 5 mph N 79 - 80 8/23/2017 8:55:00 PM
US-50 at I-95 76 59 60 None Calm Calm N 82 - 85 8/23/2017 8:55:00 PM
US-50 at MD-2 73 84 68 None Calm Calm NW 79 - 83 8/23/2017 8:55:00 PM
US-50 at MD-331 75 76 67 None Calm Calm NE 79 - 82 8/23/2017 8:55:00 PM
US-50 at OC Drawbridge 74 85 70 None 4 mph 8 mph N 76 - 76 8/23/2017 8:55:00 PM
US-50 at Table Rock Rd 59 89 56 None Calm Calm NW 78 - 78 8/23/2017 8:55:00 PM
US-50 Kent Narrow Bridge 78 70 67 None Calm 6 mph E 81 - 83 8/23/2017 8:55:00 PM
WPL Pier 31 - - - No Data Available - - No Data Available -
Location Air RH Dwp Precip Type Wind Speed Wind Gust Direction Pavement Temperature Date/Time